Time;durP1;ratioP1;P1;durP2;ratioP2;P2;SDS_P1;SDS_P2;PMS_P1;PMS_P2;Temp;Humidity;BMP_temperature;BMP_pressure;BME280_temperature;BME280_humidity;BME280_pressure;Samples;Min_cycle;Max_cycle;Signal;HPM_P1;HPM_P2
2022/05/17 00:04:12;;;;;;;11.10;4.92;;;;;;;12.41;64.40;99200.19;4519095;77;21009;-79
2022/05/17 00:10:14;;;;;;;12.82;5.60;;;;;;;12.29;64.26;99188.13;4518013;77;21004;-79
2022/05/17 00:16:15;;;;;;;11.93;4.55;;;;;;;12.20;64.68;99182.18;4512187;77;20987;-80
2022/05/17 00:22:17;;;;;;;9.35;4.90;;;;;;;12.19;65.03;99181.98;4514047;77;21075;-80
2022/05/17 00:28:21;;;;;;;9.68;4.47;;;;;;;12.18;65.32;99186.48;4503428;77;21036;-80
2022/05/17 00:34:23;;;;;;;13.28;4.58;;;;;;;12.22;66.04;99184.55;4519080;75;20971;-80
2022/05/17 00:40:24;;;;;;;10.43;5.12;;;;;;;12.27;65.74;99187.73;4588449;75;21065;-80
2022/05/17 00:46:57;;;;;;;9.05;4.75;;;;;;;12.25;65.77;99176.34;4595835;75;22198;-80
2022/05/17 00:53:09;;;;;;;8.45;4.33;;;;;;;12.23;65.84;99167.70;4605658;75;21465;-80
2022/05/17 00:59:10;;;;;;;10.70;4.70;;;;;;;12.26;65.82;99160.67;4586961;75;20984;-79
2022/05/17 01:05:12;;;;;;;10.00;4.05;;;;;;;12.28;65.96;99152.25;4600814;75;21464;-80
2022/05/17 01:11:14;;;;;;;10.48;4.40;;;;;;;12.29;66.02;99150.30;4591164;75;20995;-80
2022/05/17 01:17:15;;;;;;;8.98;4.72;;;;;;;12.33;66.53;99162.87;4600205;75;21078;-80
2022/05/17 01:23:16;;;;;;;8.63;4.42;;;;;;;12.29;66.27;99146.19;4584799;75;21490;-80
2022/05/17 01:29:18;;;;;;;14.38;4.85;;;;;;;12.21;66.37;99143.98;4489956;77;20997;-80
2022/05/17 01:35:20;;;;;;;8.63;4.53;;;;;;;12.18;66.40;99130.99;4495075;77;21020;-80
2022/05/17 01:41:22;;;;;;;12.05;5.10;;;;;;;12.17;66.80;99139.03;4541761;77;21591;-79
2022/05/17 01:47:23;;;;;;;9.05;4.50;;;;;;;12.14;67.48;99141.75;4539481;77;20957;-79
2022/05/17 01:53:24;;;;;;;8.85;4.42;;;;;;;12.13;67.12;99136.86;4561105;77;22008;-80
2022/05/17 01:59:26;;;;;;;9.33;4.30;;;;;;;12.12;67.28;99128.41;4537593;77;21886;-80
2022/05/17 02:05:28;;;;;;;9.05;4.50;;;;;;;12.14;67.28;99129.40;4554727;77;21340;-79
2022/05/17 02:11:29;;;;;;;7.80;4.30;;;;;;;12.15;67.48;99122.16;4533212;77;21018;-78
2022/05/17 02:17:31;;;;;;;9.73;4.47;;;;;;;12.11;67.56;99116.44;4542151;77;21040;-80
2022/05/17 02:23:32;;;;;;;7.83;4.15;;;;;;;12.07;67.54;99130.16;4546614;77;21489;-79
2022/05/17 02:29:34;;;;;;;10.43;4.80;;;;;;;12.04;67.52;99136.98;4544472;77;20978;-80
2022/05/17 02:35:35;;;;;;;8.10;4.75;;;;;;;12.00;67.68;99130.09;4514978;77;21006;-79
2022/05/17 02:41:37;;;;;;;8.55;4.65;;;;;;;11.97;67.59;99118.52;4419917;78;21049;-79
2022/05/17 02:47:38;;;;;;;6.50;4.15;;;;;;;11.86;67.70;99103.13;4418655;79;21025;-79
2022/05/17 02:53:40;;;;;;;7.85;4.15;;;;;;;11.77;68.02;99103.47;4421589;79;22245;-79
2022/05/17 02:59:41;;;;;;;7.17;4.45;;;;;;;11.72;68.79;99101.08;4423704;79;21060;-81
2022/05/17 03:05:44;;;;;;;8.33;4.78;;;;;;;11.64;68.66;99110.41;4422481;79;21696;-80
2022/05/17 03:11:46;;;;;;;9.78;4.67;;;;;;;11.67;69.12;99124.73;4425378;79;21999;-79
2022/05/17 03:17:47;;;;;;;6.45;4.50;;;;;;;11.59;69.07;99115.44;4424258;79;21008;-80
2022/05/17 03:23:49;;;;;;;14.90;5.37;;;;;;;11.55;69.31;99115.97;4423405;79;21120;-80
2022/05/17 03:29:51;;;;;;;8.70;4.25;;;;;;;11.52;69.34;99118.89;4419739;79;21537;-79
2022/05/17 03:35:52;;;;;;;8.35;5.05;;;;;;;11.53;69.77;99132.80;4437050;78;21649;-80
2022/05/17 03:41:55;;;;;;;9.63;5.37;;;;;;;11.60;69.95;99126.59;4459473;78;21039;-80
2022/05/17 03:47:56;;;;;;;8.58;5.17;;;;;;;11.59;69.87;99114.83;4466462;78;21010;-79
2022/05/17 03:53:57;;;;;;;11.97;6.40;;;;;;;11.67;70.39;99134.33;4468759;78;21528;-80
2022/05/17 03:59:58;;;;;;;10.85;5.65;;;;;;;11.70;70.15;99139.05;4467360;78;21073;-80
2022/05/17 04:05:59;;;;;;;9.63;5.45;;;;;;;11.74;70.49;99139.88;4459841;78;21029;-78
2022/05/17 04:12:03;;;;;;;8.75;5.47;;;;;;;11.82;70.68;99144.84;4455286;78;22101;-80
2022/05/17 04:18:06;;;;;;;10.10;5.75;;;;;;;11.93;70.57;99142.97;4441957;78;21176;-80
2022/05/17 04:24:08;;;;;;;11.83;5.30;;;;;;;12.05;70.81;99153.06;4444590;78;21144;-80
2022/05/17 04:30:12;;;;;;;9.78;5.10;;;;;;;12.07;70.76;99152.11;4462343;78;21547;-80
2022/05/17 04:36:13;;;;;;;11.70;5.40;;;;;;;12.19;70.85;99155.12;4342364;81;21078;-79
2022/05/17 04:42:15;;;;;;;9.53;5.45;;;;;;;12.33;70.91;99152.47;4321242;81;21073;-79
2022/05/17 04:48:16;;;;;;;11.90;5.30;;;;;;;12.48;71.01;99144.54;4314356;80;21070;-79
2022/05/17 04:54:17;;;;;;;12.15;5.97;;;;;;;12.62;70.95;99153.63;4315114;81;21018;-79
2022/05/17 05:00:22;;;;;;;9.78;5.35;;;;;;;12.72;70.82;99158.20;4317683;81;21646;-80
2022/05/17 05:06:27;;;;;;;9.50;5.03;;;;;;;12.83;71.03;99161.19;4320220;81;20952;-80
2022/05/17 05:12:27;;;;;;;8.28;4.55;;;;;;;12.96;70.92;99167.93;4318004;81;21026;-79
2022/05/17 05:18:28;;;;;;;9.98;5.47;;;;;;;13.03;70.69;99165.83;4321966;81;20962;-79
2022/05/17 05:24:31;;;;;;;10.20;5.00;;;;;;;13.12;70.67;99164.88;4320696;81;21050;-80
2022/05/17 05:30:33;;;;;;;12.18;5.72;;;;;;;13.28;70.75;99163.95;4319997;81;21022;-79
2022/05/17 05:36:35;;;;;;;11.10;6.03;;;;;;;13.42;70.61;99170.26;4318193;81;21046;-80
2022/05/17 05:42:39;;;;;;;10.05;5.78;;;;;;;13.52;70.61;99160.46;4348757;80;20957;-80
2022/05/17 05:48:41;;;;;;;9.15;5.12;;;;;;;13.70;70.76;99159.31;4312519;81;20992;-81
2022/05/17 05:54:42;;;;;;;10.48;5.30;;;;;;;13.89;70.50;99155.42;4311496;81;21064;-80
2022/05/17 06:00:44;;;;;;;9.03;5.33;;;;;;;14.07;70.38;99154.23;4319264;81;21043;-80
2022/05/17 06:06:45;;;;;;;9.28;4.87;;;;;;;14.24;69.99;99165.05;4318807;81;21007;-81
2022/05/17 06:12:47;;;;;;;12.20;5.40;;;;;;;14.45;69.85;99160.91;4321978;81;20978;-79
2022/05/17 06:18:48;;;;;;;7.80;5.28;;;;;;;14.67;69.63;99158.30;4319615;81;21008;-81
2022/05/17 06:24:49;;;;;;;16.90;5.75;;;;;;;14.87;69.57;99161.38;4318555;81;21075;-81
2022/05/17 06:30:50;;;;;;;14.13;5.70;;;;;;;14.98;69.33;99159.37;4321371;81;21522;-80
2022/05/17 06:36:51;;;;;;;10.48;5.37;;;;;;;15.12;69.07;99151.83;4325742;80;21070;-80
2022/05/17 06:42:53;;;;;;;13.55;5.33;;;;;;;15.28;68.96;99148.60;4349762;80;21947;-80
2022/05/17 06:48:54;;;;;;;10.40;4.92;;;;;;;15.53;68.84;99153.41;4354173;80;21025;-81
2022/05/17 06:54:57;;;;;;;11.85;5.47;;;;;;;15.71;68.56;99157.44;4348806;80;20982;-81
2022/05/17 07:00:58;;;;;;;11.80;4.97;;;;;;;15.92;68.20;99153.13;4348695;80;22227;-81
2022/05/17 07:07:00;;;;;;;12.07;5.95;;;;;;;16.12;67.85;99146.65;4351991;80;21034;-81
2022/05/17 07:13:08;;;;;;;12.82;5.22;;;;;;;16.31;67.46;99151.61;4347708;80;21629;-81
2022/05/17 07:19:10;;;;;;;12.30;5.67;;;;;;;16.43;67.03;99158.00;4340206;80;21037;-81
2022/05/17 07:25:11;;;;;;;15.35;5.53;;;;;;;16.54;66.91;99157.91;4345715;80;21109;-81
2022/05/17 07:31:13;;;;;;;16.62;6.10;;;;;;;16.64;66.45;99141.24;4345008;80;21049;-81
2022/05/17 07:37:16;;;;;;;10.98;4.85;;;;;;;16.80;66.21;99142.81;4303970;81;21007;-80
2022/05/17 07:43:17;;;;;;;12.85;5.45;;;;;;;17.00;66.05;99141.61;4304230;81;21020;-80
2022/05/17 07:49:18;;;;;;;13.35;5.53;;;;;;;17.36;65.65;99149.63;4305968;81;21043;-81
2022/05/17 07:55:20;;;;;;;9.20;4.97;;;;;;;17.75;65.20;99151.27;4341122;81;21600;-81
2022/05/17 08:01:21;;;;;;;9.10;4.92;;;;;;;18.08;64.91;99144.81;4304233;81;21058;-79
2022/05/17 08:07:22;;;;;;;9.28;4.65;;;;;;;18.43;64.55;99133.75;4337856;81;22038;-81
2022/05/17 08:13:25;;;;;;;12.65;4.08;;;;;;;18.64;63.66;99134.13;4308984;81;21047;-82
2022/05/17 08:19:26;;;;;;;8.70;3.47;;;;;;;18.95;62.70;99134.69;4338448;81;22179;-81
2022/05/17 08:33:14;;;;;;;10.00;3.75;;;;;;;19.36;61.88;99120.38;4329225;80;21026;-81
2022/05/17 08:37:51;;;;;;;8.50;3.52;;;;;;;19.36;60.94;99123.15;4323444;81;21097;-81
2022/05/17 08:44:13;;;;;;;7.65;3.40;;;;;;;19.29;60.49;99126.09;4315602;81;20971;-81
2022/05/17 08:50:22;;;;;;;13.05;3.92;;;;;;;19.30;59.96;99137.36;4320368;81;21041;-81
2022/05/17 08:56:27;;;;;;;12.13;3.70;;;;;;;19.41;59.25;99130.38;4320234;81;21030;-81
2022/05/17 09:02:46;;;;;;;6.12;3.12;;;;;;;19.58;58.81;99132.56;4324045;81;21129;-81
2022/05/17 09:09:02;;;;;;;4.90;2.75;;;;;;;19.73;58.26;99135.20;4317453;81;22209;-82
2022/05/17 09:15:05;;;;;;;8.23;3.00;;;;;;;20.01;57.41;99139.45;4315817;81;21058;-82
2022/05/17 09:21:33;;;;;;;8.65;2.72;;;;;;;20.13;57.34;99145.76;4319952;81;21014;-82
2022/05/17 09:27:39;;;;;;;6.70;2.12;;;;;;;20.01;56.81;99145.02;4316751;81;21674;-82
2022/05/17 09:33:42;;;;;;;5.70;2.05;;;;;;;19.91;56.42;99142.50;4312871;81;21073;-82
2022/05/17 09:39:48;;;;;;;7.70;2.40;;;;;;;20.02;55.54;99142.43;4318502;81;21475;-82
2022/05/17 09:45:55;;;;;;;4.57;2.20;;;;;;;20.16;55.40;99137.15;4320351;81;21007;-81
2022/05/17 09:58:36;;;;;;;4.87;1.98;;;;;;;20.72;54.48;99136.28;4180058;81;22688;-81
2022/05/17 10:04:42;;;;;;;5.55;1.87;;;;;;;20.83;52.77;99141.70;4162579;84;22111;-80
2022/05/17 10:10:47;;;;;;;4.53;2.12;;;;;;;20.84;52.34;99141.10;4254362;82;21093;-81
2022/05/17 10:16:57;;;;;;;6.33;1.82;;;;;;;20.92;51.79;99137.67;4241458;82;21071;-82
2022/05/17 10:23:10;;;;;;;5.83;2.02;;;;;;;20.86;51.32;99138.04;4249326;81;21098;-81
2022/05/17 10:29:29;;;;;;;6.28;1.65;;;;;;;20.94;50.85;99130.30;4243238;81;21102;-81
2022/05/17 10:35:42;;;;;;;5.55;1.70;;;;;;;21.06;50.00;99127.58;4228576;82;22352;-81
2022/05/17 10:41:44;;;;;;;8.75;1.70;;;;;;;21.21;49.76;99134.28;4260292;81;21922;-82
2022/05/17 10:48:11;;;;;;;7.78;1.77;;;;;;;21.45;48.83;99122.23;4267573;82;20973;-82
2022/05/17 10:55:07;;;;;;;6.25;1.90;;;;;;;21.61;49.07;99122.89;4252742;82;21070;-82
2022/05/17 11:01:17;;;;;;;7.65;2.08;;;;;;;21.62;48.48;99121.69;4253196;82;21613;-81
2022/05/17 11:07:55;;;;;;;4.00;1.90;;;;;;;21.71;47.94;99117.61;4258617;81;21046;-82
2022/05/17 11:14:05;;;;;;;6.87;1.65;;;;;;;21.66;47.67;99124.34;4258602;82;21077;-82
2022/05/17 11:20:39;;;;;;;5.17;1.82;;;;;;;21.61;47.20;99120.11;4229640;82;21081;-81
2022/05/17 11:27:06;;;;;;;4.92;1.95;;;;;;;21.66;46.97;99113.98;4247389;82;21167;-82
2022/05/17 11:33:34;;;;;;;4.78;1.52;;;;;;;21.67;46.58;99118.95;4258037;82;21074;-82
2022/05/17 11:39:41;;;;;;;10.05;2.22;;;;;;;21.65;45.90;99110.26;4261575;82;21054;-82
2022/05/17 11:45:50;;;;;;;6.42;1.92;;;;;;;21.93;45.83;99112.77;4262952;82;21066;-82
2022/05/17 11:52:04;;;;;;;5.60;1.80;;;;;;;22.26;45.25;99115.44;4250908;82;21078;-83
2022/05/17 11:58:08;;;;;;;4.13;1.47;;;;;;;22.54;45.08;99111.09;4263046;82;21043;-82
2022/05/17 12:04:30;;;;;;;8.03;1.85;;;;;;;22.53;44.49;99114.33;4263143;82;21441;-82
2022/05/17 12:10:31;;;;;;;6.40;1.72;;;;;;;22.71;44.59;99107.49;4266243;82;21014;-82
2022/05/17 12:16:33;;;;;;;3.85;1.50;;;;;;;22.80;43.88;99111.13;4263707;82;21014;-81
2022/05/17 12:22:55;;;;;;;5.33;1.30;;;;;;;22.80;43.13;99106.19;4245076;82;20990;-82
2022/05/17 12:30:52;;;;;;;5.53;2.00;;;;;;;22.61;41.80;99105.88;4257944;82;21094;-81
2022/05/17 12:35:01;;;;;;;15.30;1.42;;;;;;;22.31;41.05;99120.45;4267679;82;21007;-83
2022/05/17 12:47:45;;;;;;;4.78;1.65;;;;;;;21.27;40.22;99141.46;4278593;81;21053;-82
2022/05/17 12:53:50;;;;;;;2.27;1.00;;;;;;;20.82;40.26;99144.93;4271262;82;21069;-83
2022/05/17 12:59:52;;;;;;;5.30;1.57;;;;;;;20.48;40.48;99151.62;4262651;81;21574;-82
2022/05/17 13:05:58;;;;;;;5.75;1.20;;;;;;;20.23;40.52;99146.71;4274963;82;21070;-82
2022/05/17 13:12:04;;;;;;;1.92;1.00;;;;;;;20.03;40.82;99151.52;4262437;82;21026;-82
2022/05/17 13:18:08;;;;;;;3.83;1.02;;;;;;;19.86;40.70;99148.57;4272178;82;21562;-81
2022/05/17 13:24:27;;;;;;;4.92;1.17;;;;;;;19.57;40.57;99151.84;4275759;81;20999;-82
2022/05/17 13:30:36;;;;;;;5.83;1.12;;;;;;;19.36;40.81;99156.45;4274305;82;21082;-83
2022/05/17 13:36:41;;;;;;;6.17;1.07;;;;;;;19.25;40.59;99158.65;4270830;82;21571;-83
2022/05/17 13:42:52;;;;;;;3.47;1.10;;;;;;;19.09;40.92;99171.86;4269517;80;21047;-82
2022/05/17 13:49:26;;;;;;;3.77;1.02;;;;;;;18.98;41.31;99172.67;4273113;82;21063;-81
2022/05/17 13:55:32;;;;;;;5.37;1.15;;;;;;;18.85;41.57;99169.58;3920080;89;21080;-87
2022/05/17 14:01:38;;;;;;;2.20;0.80;;;;;;;18.85;41.88;99173.15;3917679;89;21107;-88
2022/05/17 14:07:40;;;;;;;3.25;1.15;;;;;;;18.92;42.19;99163.29;3962796;89;32609;-89
2022/05/17 14:13:41;;;;;;;6.50;1.20;;;;;;;19.04;42.15;99159.89;3963042;89;21085;-85
2022/05/17 14:19:48;;;;;;;2.12;1.17;;;;;;;19.09;41.97;99159.38;3954330;89;21138;-86
2022/05/17 14:25:49;;;;;;;3.08;0.90;;;;;;;19.12;42.18;99154.35;3942638;89;21122;-85
2022/05/17 14:31:51;;;;;;;6.17;1.15;;;;;;;19.14;42.25;99153.95;3953520;89;21133;-90
2022/05/17 14:37:53;;;;;;;3.92;1.05;;;;;;;19.17;42.51;99158.64;3878439;91;21547;-87
2022/05/17 14:43:54;;;;;;;3.75;1.30;;;;;;;19.11;42.80;99158.34;3954889;89;21102;-86
2022/05/17 14:49:58;;;;;;;2.17;0.90;;;;;;;19.06;42.22;99154.68;3942334;87;21703;-84
2022/05/17 14:55:59;;;;;;;5.33;1.25;;;;;;;19.02;42.21;99157.35;4018479;87;21065;-86
2022/05/17 15:02:02;;;;;;;5.75;0.62;;;;;;;18.92;42.11;99162.53;4018667;87;21108;-85
2022/05/17 15:08:09;;;;;;;7.50;1.00;;;;;;;18.80;42.10;99161.75;4012310;87;21616;-87
2022/05/17 15:14:10;;;;;;;3.25;0.82;;;;;;;18.80;42.29;99170.07;4028633;87;21096;-88
2022/05/17 15:20:14;;;;;;;4.72;0.80;;;;;;;18.76;41.96;99171.55;4004227;87;22157;-86
2022/05/17 15:26:16;;;;;;;2.45;1.10;;;;;;;18.71;41.99;99168.63;4016546;87;21572;-89
2022/05/17 15:32:17;;;;;;;7.17;1.30;;;;;;;18.68;41.76;99170.11;4028661;87;21072;-86
2022/05/17 15:38:30;;;;;;;2.85;1.12;;;;;;;18.66;41.85;99169.74;4009019;87;21164;-87
2022/05/17 15:44:31;;;;;;;5.03;1.60;;;;;;;18.65;42.26;99178.66;4008406;87;21120;-84
2022/05/17 15:56:54;;;;;;;6.42;1.22;;;;;;;18.57;42.67;99179.98;3984690;88;21065;-86
2022/05/17 16:02:56;;;;;;;4.05;1.30;;;;;;;18.54;42.63;99183.61;3985299;88;21174;-87
2022/05/17 16:08:57;;;;;;;3.98;1.20;;;;;;;18.44;42.78;99184.59;3993959;88;21078;-87
2022/05/17 16:14:59;;;;;;;3.62;1.35;;;;;;;18.36;42.77;99183.71;3912350;90;21117;-84
2022/05/17 16:21:00;;;;;;;3.77;1.65;;;;;;;18.27;43.00;99188.43;3977066;88;21098;-85
2022/05/17 16:27:02;;;;;;;8.25;2.05;;;;;;;18.21;42.72;99185.17;3985456;88;21554;-84
2022/05/17 16:33:04;;;;;;;5.58;1.77;;;;;;;18.15;42.63;99197.31;3975866;88;21078;-85
2022/05/17 16:39:06;;;;;;;5.17;1.70;;;;;;;18.11;42.76;99195.80;3910800;90;21069;-85
2022/05/17 16:45:08;;;;;;;3.83;1.70;;;;;;;18.07;42.91;99195.86;3975688;88;21082;-85
2022/05/17 16:51:13;;;;;;;5.35;1.60;;;;;;;18.02;42.94;99197.74;3927685;90;22537;-86
2022/05/17 16:57:14;;;;;;;3.15;1.42;;;;;;;17.96;42.94;99203.55;4017473;87;21131;-84
2022/05/17 17:03:16;;;;;;;7.35;1.40;;;;;;;17.90;43.19;99214.92;3979295;88;21069;-84
2022/05/17 17:09:23;;;;;;;4.30;2.22;;;;;;;17.81;43.24;99220.20;3990229;88;21727;-86
2022/05/17 17:15:23;;;;;;;4.70;1.40;;;;;;;17.72;43.39;99218.56;3947764;89;21435;-84
2022/05/17 17:21:26;;;;;;;4.55;1.32;;;;;;;17.65;43.56;99225.56;3986732;88;21695;-84
2022/05/17 17:27:28;;;;;;;3.45;1.65;;;;;;;17.57;43.77;99235.16;3982332;88;21065;-86
2022/05/17 17:39:49;;;;;;;3.72;2.30;;;;;;;17.33;44.50;99247.31;3976608;88;21026;-86
2022/05/17 17:45:58;;;;;;;5.78;1.67;;;;;;;17.21;44.37;99253.39;3992816;88;21122;-84
2022/05/17 17:51:59;;;;;;;2.83;1.75;;;;;;;17.14;44.57;99257.61;3973341;88;21146;-84
2022/05/17 17:58:05;;;;;;;5.90;1.82;;;;;;;17.07;44.65;99263.99;3955630;89;22071;-85
2022/05/17 18:04:07;;;;;;;8.08;2.08;;;;;;;17.00;44.77;99266.05;3954956;89;21098;-86
2022/05/17 18:10:09;;;;;;;4.85;2.00;;;;;;;16.82;45.41;99266.23;3933462;89;21625;-85
2022/05/17 18:16:38;;;;;;;4.87;1.85;;;;;;;16.61;45.86;99268.41;3935384;89;21097;-85
2022/05/17 18:22:42;;;;;;;6.85;1.90;;;;;;;16.41;46.61;99281.18;3940457;89;21050;-84
2022/05/17 18:28:46;;;;;;;6.00;2.05;;;;;;;16.17;46.80;99288.45;3937626;89;21038;-85
2022/05/17 18:34:50;;;;;;;6.28;2.30;;;;;;;15.93;47.49;99305.95;3939070;89;21098;-86
2022/05/17 18:40:54;;;;;;;9.70;3.35;;;;;;;15.65;47.70;99313.78;3900433;89;22049;-84
2022/05/17 18:46:55;;;;;;;6.67;2.72;;;;;;;15.37;48.40;99328.23;3922181;89;21098;-87
2022/05/17 18:52:56;;;;;;;6.42;2.60;;;;;;;15.07;49.45;99332.83;3959936;88;21097;-84
2022/05/17 18:58:58;;;;;;;9.58;3.83;;;;;;;14.82;50.85;99340.92;3909233;90;21731;-88
2022/05/17 19:04:59;;;;;;;7.92;2.90;;;;;;;14.51;50.86;99352.72;4002947;88;21092;-88
2022/05/17 19:17:22;;;;;;;7.05;3.20;;;;;;;14.12;51.35;99378.78;3916999;90;21450;-86
2022/05/17 19:23:23;;;;;;;9.85;2.92;;;;;;;14.14;51.29;99388.83;4004597;88;21100;-85
2022/05/17 19:29:27;;;;;;;12.47;2.80;;;;;;;14.14;51.45;99402.59;3972188;88;21077;-86
2022/05/17 19:35:34;;;;;;;4.97;2.35;;;;;;;14.10;52.20;99408.66;3954528;89;21115;-87
2022/05/17 19:41:35;;;;;;;6.42;2.45;;;;;;;14.00;52.56;99411.57;3978332;88;21085;-84
2022/05/17 19:47:49;;;;;;;8.13;2.60;;;;;;;13.86;52.52;99423.89;3910872;90;21159;-84
2022/05/17 19:53:50;;;;;;;4.83;2.22;;;;;;;13.70;52.75;99422.64;4002008;88;21271;-84
2022/05/17 19:59:52;;;;;;;8.08;3.60;;;;;;;13.53;53.04;99430.22;3980894;88;21655;-84
2022/05/17 20:05:55;;;;;;;4.95;2.75;;;;;;;13.30;53.37;99445.56;3901972;90;21113;-89
2022/05/17 20:12:01;;;;;;;9.80;3.10;;;;;;;13.13;53.94;99451.72;4030670;84;21584;-89
2022/05/17 20:18:04;;;;;;;5.92;2.70;;;;;;;12.98;54.52;99447.83;4212520;81;21091;-85
2022/05/17 20:24:11;;;;;;;5.50;2.17;;;;;;;12.85;55.07;99461.06;4156326;84;21067;-88
2022/05/17 20:30:13;;;;;;;8.18;2.67;;;;;;;12.70;56.35;99481.30;4172142;84;21127;-85
2022/05/17 20:36:15;;;;;;;5.03;2.25;;;;;;;12.55;56.00;99481.77;4166243;84;21121;-85
2022/05/17 20:42:17;;;;;;;3.45;1.57;;;;;;;12.50;55.75;99486.78;4114559;85;21767;-86
2022/05/17 20:48:18;;;;;;;6.67;1.85;;;;;;;12.55;55.43;99495.48;4164753;84;21095;-84
2022/05/17 20:54:20;;;;;;;3.62;2.08;;;;;;;12.65;55.03;99507.77;4170913;84;21573;-85
2022/05/17 21:00:22;;;;;;;5.28;1.87;;;;;;;12.72;54.76;99513.31;4166866;84;21048;-86
2022/05/17 21:06:29;;;;;;;3.42;1.70;;;;;;;12.76;54.54;99516.11;4172483;84;22102;-84
2022/05/17 21:12:33;;;;;;;3.55;1.60;;;;;;;12.76;54.35;99525.15;4167230;84;21018;-84
2022/05/17 21:18:36;;;;;;;5.25;2.02;;;;;;;12.73;54.17;99536.09;4099965;85;21118;-87
2022/05/17 21:24:37;;;;;;;5.50;1.75;;;;;;;12.67;54.09;99543.09;4128249;85;21057;-85
2022/05/17 21:30:40;;;;;;;3.08;1.47;;;;;;;12.59;53.90;99554.59;4116460;85;21538;-85
2022/05/17 21:36:45;;;;;;;3.52;1.70;;;;;;;12.46;53.82;99557.36;4119951;84;21090;-85
2022/05/17 21:42:47;;;;;;;3.87;1.32;;;;;;;12.35;53.70;99573.70;4117471;85;21074;-86
2022/05/17 21:48:48;;;;;;;3.37;1.72;;;;;;;12.29;53.53;99578.52;4115917;85;22340;-86
2022/05/17 21:54:49;;;;;;;4.42;1.95;;;;;;;12.21;53.48;99589.19;4105730;85;21401;-88
2022/05/17 22:00:53;;;;;;;4.47;1.82;;;;;;;12.12;53.50;99604.53;4106624;85;21010;-84
2022/05/17 22:06:54;;;;;;;4.37;1.50;;;;;;;12.03;53.41;99614.99;4115984;85;21630;-84
2022/05/17 22:19:16;;;;;;;3.30;1.55;;;;;;;11.73;53.51;99624.33;4128125;85;21050;-85
2022/05/17 22:25:22;;;;;;;6.03;1.80;;;;;;;11.61;53.58;99632.69;4119854;84;21578;-86
2022/05/17 22:31:23;;;;;;;3.45;1.60;;;;;;;11.47;53.65;99648.89;4208759;84;21028;-85
2022/05/17 22:37:24;;;;;;;7.30;1.95;;;;;;;11.35;53.68;99644.97;4193283;84;21077;-85
2022/05/17 22:43:27;;;;;;;4.05;1.62;;;;;;;11.24;53.75;99654.38;4181894;84;21131;-84
2022/05/17 22:49:28;;;;;;;3.02;1.42;;;;;;;11.12;53.73;99657.25;4126411;85;21049;-84
2022/05/17 22:55:30;;;;;;;4.20;1.52;;;;;;;11.00;53.73;99676.02;4185974;84;21081;-86
2022/05/17 23:01:32;;;;;;;2.70;1.40;;;;;;;10.89;53.68;99679.69;4191220;84;21056;-86
2022/05/17 23:07:33;;;;;;;4.92;1.60;;;;;;;10.78;53.60;99689.06;4189165;84;21045;-84
2022/05/17 23:13:35;;;;;;;7.42;1.80;;;;;;;10.74;53.42;99696.98;4203603;84;21651;-88
2022/05/17 23:19:36;;;;;;;3.17;1.42;;;;;;;10.72;53.34;99706.13;4196096;83;21123;-85
2022/05/17 23:31:57;;;;;;;5.03;1.87;;;;;;;10.55;53.22;99699.13;4187182;84;21041;-85
2022/05/17 23:37:58;;;;;;;5.17;1.50;;;;;;;10.47;53.14;99700.68;4197702;82;21652;-88
2022/05/17 23:44:00;;;;;;;10.78;1.62;;;;;;;10.37;53.91;99706.13;4198340;84;21102;-85
2022/05/17 23:50:01;;;;;;;5.17;1.60;;;;;;;10.25;53.68;99708.98;4195854;84;21121;-84
2022/05/17 23:56:05;;;;;;;4.05;1.57;;;;;;;10.13;53.97;99714.53;4183636;84;21590;-84
